createdAt,value
2018-10-04T00:02:37.953Z,10.27
2018-10-04T00:07:30.682Z,10.23
2018-10-04T00:12:23.651Z,10.19
2018-10-04T00:17:16.274Z,10.17
2018-10-04T00:22:08.984Z,10.15
2018-10-04T00:27:02.735Z,10.11
2018-10-04T00:31:55.452Z,10.08
2018-10-04T00:36:48.127Z,10.04
2018-10-04T00:41:40.794Z,10.01
2018-10-04T00:46:33.596Z,9.98
2018-10-04T00:51:26.271Z,9.96
2018-10-04T00:56:18.967Z,9.93
2018-10-04T01:01:11.625Z,9.93
2018-10-04T01:06:04.359Z,9.93
2018-10-04T01:10:57.147Z,9.96
2018-10-04T01:15:49.914Z,9.97
2018-10-04T01:20:42.590Z,9.96
2018-10-04T01:25:35.240Z,9.95
2018-10-04T01:30:27.842Z,9.93
2018-10-04T01:35:20.515Z,9.93
2018-10-04T01:40:13.297Z,9.92
2018-10-04T01:45:06.027Z,9.93
2018-10-04T01:49:58.711Z,9.94
2018-10-04T01:54:52.425Z,9.95
2018-10-04T01:59:45.026Z,9.96
2018-10-04T02:04:37.733Z,9.96
2018-10-04T02:09:30.522Z,9.93
2018-10-04T02:14:23.169Z,9.92
2018-10-04T02:19:15.795Z,9.89
2018-10-04T02:24:08.431Z,9.89
2018-10-04T02:29:01.085Z,9.87
2018-10-04T02:33:53.820Z,9.84
2018-10-04T02:38:46.507Z,9.82
2018-10-04T02:43:39.307Z,9.79
2018-10-04T02:48:31.927Z,9.78
2018-10-04T02:53:24.585Z,9.75
2018-10-04T02:58:17.237Z,9.75
2018-10-04T03:03:10.083Z,9.73
2018-10-04T03:08:02.805Z,9.72
2018-10-04T03:12:55.561Z,9.69
2018-10-04T03:17:48.239Z,9.65
2018-10-04T03:22:40.983Z,9.64
2018-10-04T03:27:33.734Z,9.55
2018-10-04T03:32:26.394Z,9.49
2018-10-04T03:37:19.077Z,9.49
2018-10-04T03:42:11.747Z,9.49
2018-10-04T03:47:04.438Z,9.40
2018-10-04T03:51:57.031Z,9.27
2018-10-04T03:56:49.680Z,9.15
2018-10-04T04:01:42.360Z,9.07
2018-10-04T04:06:35.353Z,9.03
2018-10-04T04:11:28.053Z,8.96
2018-10-04T04:16:20.766Z,8.93
2018-10-04T04:21:13.376Z,8.94
2018-10-04T04:26:05.955Z,8.96
2018-10-04T04:30:58.555Z,8.98
2018-10-04T04:35:51.189Z,9.03
2018-10-04T04:40:43.963Z,9.05
2018-10-04T04:45:36.439Z,9.10
2018-10-04T04:50:29.100Z,9.12
2018-10-04T04:55:39.383Z,9.15
2018-10-04T05:00:33.116Z,9.17
2018-10-04T05:05:26.362Z,9.19
2018-10-04T05:10:19.443Z,9.21
2018-10-04T05:15:13.272Z,9.25
2018-10-04T05:20:06.084Z,9.27
2018-10-04T05:24:58.766Z,9.26
2018-10-04T05:29:51.514Z,9.28
2018-10-04T05:34:44.311Z,9.28
2018-10-04T05:39:37.057Z,9.29
2018-10-04T05:44:29.924Z,9.31
2018-10-04T05:49:22.669Z,9.31
2018-10-04T05:54:15.428Z,9.35
2018-10-04T05:59:08.348Z,9.37
2018-10-04T06:04:01.021Z,9.40
2018-10-04T06:08:53.728Z,9.41
2018-10-04T06:13:46.523Z,9.42
2018-10-04T06:18:39.482Z,9.42
2018-10-04T06:23:32.212Z,9.43
2018-10-04T06:28:24.908Z,9.46
2018-10-04T06:33:17.654Z,9.52
2018-10-04T06:38:10.407Z,9.58
2018-10-04T06:43:03.188Z,9.62
2018-10-04T06:47:55.896Z,9.66
2018-10-04T06:52:48.598Z,9.70
2018-10-04T06:57:41.427Z,9.75
2018-10-04T07:02:34.026Z,9.81
2018-10-04T07:07:26.694Z,9.87
2018-10-04T07:12:19.448Z,9.94
2018-10-04T07:17:12.158Z,9.98
2018-10-04T07:22:04.825Z,10.02
2018-10-04T07:26:57.502Z,10.09
2018-10-04T07:31:50.246Z,10.20
2018-10-04T07:36:43.089Z,10.26
2018-10-04T07:41:35.848Z,10.34
2018-10-04T07:46:28.473Z,10.44
2018-10-04T07:51:21.247Z,10.55
2018-10-04T07:56:13.899Z,10.68
2018-10-04T08:01:06.663Z,10.79
2018-10-04T08:05:59.437Z,10.90
2018-10-04T08:10:52.043Z,11.11
2018-10-04T08:15:44.860Z,11.29
2018-10-04T08:20:37.531Z,11.39
2018-10-04T08:25:30.310Z,11.50
2018-10-04T08:30:23.031Z,11.56
2018-10-04T08:35:15.699Z,11.62
2018-10-04T08:40:08.418Z,11.70
2018-10-04T08:45:01.310Z,11.77
2018-10-04T08:49:54.112Z,11.88
2018-10-04T08:54:46.854Z,11.95
2018-10-04T08:59:39.591Z,12.01
2018-10-04T09:04:32.190Z,12.06
2018-10-04T09:09:24.820Z,12.14
2018-10-04T09:14:17.707Z,12.25
2018-10-04T09:19:10.627Z,12.32
2018-10-04T09:24:03.316Z,12.36
2018-10-04T09:29:01.928Z,12.38
2018-10-04T09:33:54.622Z,12.42
2018-10-04T09:38:47.300Z,12.48
2018-10-04T09:43:40.120Z,12.58
2018-10-04T09:48:33.181Z,12.62
2018-10-04T09:53:25.859Z,12.67
2018-10-04T09:58:18.609Z,12.71
2018-10-04T10:03:11.412Z,12.78
2018-10-04T10:08:04.172Z,12.80
2018-10-04T10:12:57.012Z,12.80
2018-10-04T10:17:49.872Z,12.82
2018-10-04T10:22:42.531Z,12.83
2018-10-04T10:27:35.275Z,12.83
2018-10-04T10:32:28.024Z,12.83
2018-10-04T10:37:20.718Z,12.86
2018-10-04T10:42:13.417Z,12.91
2018-10-04T10:47:06.122Z,12.97
2018-10-04T10:51:58.851Z,13.01
2018-10-04T10:56:51.462Z,13.01
2018-10-04T11:01:44.213Z,13.00
2018-10-04T11:06:36.885Z,13.03
2018-10-04T11:11:29.751Z,13.06
2018-10-04T11:16:22.475Z,13.06
2018-10-04T11:21:15.158Z,13.07
2018-10-04T11:26:07.978Z,13.08
2018-10-04T11:31:01.005Z,13.10
2018-10-04T11:35:53.604Z,13.11
2018-10-04T11:40:46.329Z,13.14
2018-10-04T11:45:40.367Z,13.20
2018-10-04T11:50:33.046Z,13.28
2018-10-04T11:55:25.767Z,13.43
2018-10-04T12:00:20.030Z,13.59
2018-10-04T12:05:12.701Z,13.77
2018-10-04T12:10:05.694Z,13.92
2018-10-04T12:14:58.399Z,14.02
2018-10-04T12:19:51.119Z,14.13
2018-10-04T12:24:43.877Z,14.15
2018-10-04T12:29:36.447Z,14.20
2018-10-04T12:34:29.203Z,14.17
2018-10-04T12:39:21.966Z,14.14
2018-10-04T12:44:14.684Z,14.15
2018-10-04T12:49:07.684Z,14.18
2018-10-04T12:54:00.307Z,14.24
2018-10-04T12:58:52.994Z,14.35
2018-10-04T13:03:45.663Z,14.38
2018-10-04T13:08:38.431Z,14.42
2018-10-04T13:13:31.034Z,14.47
2018-10-04T13:18:23.669Z,14.52
2018-10-04T13:23:16.448Z,14.57
2018-10-04T13:28:09.232Z,14.62
2018-10-04T13:33:01.938Z,14.67
2018-10-04T13:37:54.690Z,14.74
2018-10-04T13:42:47.366Z,14.75
2018-10-04T13:47:40.129Z,14.81
2018-10-04T13:52:32.815Z,14.82
2018-10-04T13:57:25.479Z,14.82
2018-10-04T14:02:18.143Z,14.85
2018-10-04T14:07:10.850Z,14.88
2018-10-04T14:12:03.533Z,14.88
2018-10-04T14:16:56.302Z,14.92
2018-10-04T14:21:48.998Z,14.96
2018-10-04T14:26:41.722Z,15.02
2018-10-04T14:31:34.578Z,15.04
2018-10-04T14:36:27.234Z,15.04
2018-10-04T14:41:19.936Z,15.05
2018-10-04T14:46:12.693Z,15.06
2018-10-04T14:51:05.883Z,15.05
2018-10-04T14:55:58.478Z,15.07
2018-10-04T15:00:51.195Z,15.06
2018-10-04T15:05:43.802Z,15.05
2018-10-04T15:10:36.455Z,15.03
2018-10-04T15:15:29.973Z,15.01
2018-10-04T15:20:22.613Z,15.02
2018-10-04T15:25:16.024Z,15.06
2018-10-04T15:30:08.744Z,15.13
2018-10-04T15:35:01.382Z,15.17
2018-10-04T15:39:55.034Z,15.16
2018-10-04T15:44:47.761Z,15.12
2018-10-04T15:49:40.433Z,15.03
2018-10-04T15:54:33.143Z,14.95
2018-10-04T15:59:25.751Z,14.85
2018-10-04T16:04:18.394Z,14.80
2018-10-04T16:09:10.967Z,14.76
2018-10-04T16:14:03.839Z,14.75
2018-10-04T16:18:56.706Z,14.72
2018-10-04T16:23:49.369Z,14.68
2018-10-04T16:28:41.957Z,14.62
2018-10-04T16:33:34.651Z,14.58
2018-10-04T16:38:27.356Z,14.52
2018-10-04T16:43:19.963Z,14.49
2018-10-04T16:48:12.664Z,14.45
2018-10-04T16:53:05.526Z,14.41
2018-10-04T16:57:58.150Z,14.39
2018-10-04T17:02:50.803Z,14.35
2018-10-04T17:07:43.439Z,14.30
2018-10-04T17:12:36.088Z,14.27
2018-10-04T17:17:28.795Z,14.22
2018-10-04T17:22:21.467Z,14.19
2018-10-04T17:27:14.084Z,14.17
2018-10-04T17:32:06.730Z,14.16
2018-10-04T17:36:59.376Z,14.11
2018-10-04T17:41:52.032Z,14.06
2018-10-04T17:46:44.711Z,14.02
2018-10-04T17:51:37.452Z,13.98
2018-10-04T17:56:30.105Z,13.97
2018-10-04T18:01:22.847Z,13.98
2018-10-04T18:06:15.443Z,13.98
2018-10-04T18:11:08.083Z,14.00
2018-10-04T18:16:00.717Z,14.00
2018-10-04T18:20:53.362Z,14.02
2018-10-04T18:25:46.069Z,14.03
2018-10-04T18:30:39.274Z,14.04
2018-10-04T18:35:31.916Z,14.06
2018-10-04T18:40:24.608Z,14.09
2018-10-04T18:45:17.254Z,14.09
2018-10-04T18:50:09.959Z,14.10
2018-10-04T18:55:02.670Z,14.11
2018-10-04T18:59:55.426Z,14.10
2018-10-04T19:04:48.109Z,14.08
2018-10-04T19:09:40.723Z,14.04
2018-10-04T19:14:33.383Z,14.03
2018-10-04T19:19:26.080Z,14.01
2018-10-04T19:24:18.738Z,14.00
2018-10-04T19:29:11.714Z,13.99
2018-10-04T19:34:04.395Z,13.98
2018-10-04T19:38:57.055Z,13.95
2018-10-04T19:43:49.695Z,13.96
2018-10-04T19:48:42.402Z,13.94
2018-10-04T19:53:35.033Z,13.95
2018-10-04T19:58:27.722Z,13.95
2018-10-04T20:03:20.448Z,13.96
2018-10-04T20:08:13.042Z,13.98
2018-10-04T20:13:06.071Z,14.00
2018-10-04T20:17:58.730Z,14.00
2018-10-04T20:22:51.337Z,14.01
2018-10-04T20:27:43.997Z,14.01
2018-10-04T20:32:36.761Z,14.00
2018-10-04T20:37:29.404Z,14.00
2018-10-04T20:42:22.049Z,14.00
2018-10-04T20:47:14.711Z,13.99
2018-10-04T20:52:07.714Z,13.98
2018-10-04T20:57:00.499Z,13.98
2018-10-04T21:01:53.305Z,13.97
2018-10-04T21:06:45.963Z,13.96
2018-10-04T21:11:39.582Z,13.96
2018-10-04T21:16:32.226Z,13.93
2018-10-04T21:21:24.956Z,13.93
2018-10-04T21:26:17.637Z,13.91
2018-10-04T21:31:10.266Z,13.89
2018-10-04T21:36:02.931Z,13.89
2018-10-04T21:40:55.563Z,13.87
2018-10-04T21:45:48.193Z,13.85
2018-10-04T21:50:41.933Z,13.84
2018-10-04T21:55:34.614Z,13.83
2018-10-04T22:00:27.660Z,13.82
2018-10-04T22:05:20.352Z,13.82
2018-10-04T22:10:12.983Z,13.79
2018-10-04T22:15:05.935Z,13.78
2018-10-04T22:19:58.692Z,13.78
2018-10-04T22:24:51.439Z,13.76
2018-10-04T22:29:44.204Z,13.72
2018-10-04T22:34:36.867Z,13.71
2018-10-04T22:39:29.587Z,13.67
2018-10-04T22:44:22.291Z,13.60
2018-10-04T22:49:14.991Z,13.53
2018-10-04T22:54:07.785Z,13.50
2018-10-04T22:59:00.521Z,13.49
2018-10-04T23:03:53.205Z,13.48
2018-10-04T23:08:45.908Z,13.47
2018-10-04T23:13:38.562Z,13.46
2018-10-04T23:18:31.256Z,13.44
2018-10-04T23:23:23.976Z,13.41
2018-10-04T23:28:16.651Z,13.41
2018-10-04T23:33:09.371Z,13.39
2018-10-04T23:38:02.078Z,13.35
2018-10-04T23:42:54.771Z,13.31
2018-10-04T23:47:47.358Z,13.30
2018-10-04T23:52:40.002Z,13.27
2018-10-04T23:57:32.681Z,13.24
